Terminal Aerodrome Forecast
Issued by NWS Charleston, WV

Current Version | Previous Version | Graphics & Text | Print | Product List | Glossary On
Versions: 1 2 3 4 5 6 7 8 9 10 11 12 13 14 15 16 17 18 19 20 21
098
FTUS41 KRLX 111551 AAA
TAFCRW
TAF AMD
KCRW 111551Z 1116/1212 29007KT P6SM SCT035
      TEMPO 1116/1119 BKN035
     FM120100 00000KT P6SM SCT080
     FM120900 00000KT P6SM BKN080=

USA.gov is the U.S. government's official web portal to all federal, state and local government web resources and services.